Latest Weather Observations for Richmond

IDN60901

Issued at 11:45 pm EST Friday 1 August 2014 (issued every 10 minutes, with the page automatically refreshed every 10 minutes)

About weather observations | Map of Sydney area stations | Latest observations for Sydney area | Other Formats
Station Details ID: 067105 Name: RICHMOND RAAF Lat: -33.60 Lon: 150.78 Height: 19.0 m
Data from the previous 72 hours. | See also: Recent months at Richmond
Date/Time
EST
Tmp

°C
App
Tmp
°C
Dew
Point
°C
Rel
Hum
%
Delta-T

°C
Wind Press
QNH
hPa
Press
MSL
hPa
Rain
since
9 am
mm
Dir
 
Spd
km/h
Gust
km/h
Spd
kts
Gust
kts
01/11:30pm 8.4 5.3 0.4 57 3.2 NNW 6 11 3 6 1016.8 - 0.0
01/11:00pm 7.6 4.2 -0.4 57 3.1 ENE 7 9 4 5 1016.7 1016.7 0.0
01/10:30pm 8.4 3.9 -0.1 55 3.4 WNW 13 20 7 11 1016.4 - 0.0
01/10:00pm 9.6 4.5 0.8 54 3.6 WNW 17 22 9 12 1016.4 1016.4 0.0
01/09:30pm 9.2 6.0 0.6 55 3.5 SSW 7 24 4 13 1016.3 - 0.0
01/09:00pm 8.2 5.2 1.8 64 2.6 ESE 7 13 4 7 1016.4 1016.4 0.0
01/08:30pm 8.0 4.6 1.8 65 2.5 ESE 9 11 5 6 1016.0 - 0.0
01/08:00pm 9.0 4.4 1.4 59 3.1 W 15 22 8 12 1015.4 1015.4 0.0
01/07:30pm 10.2 0.1 1.6 55 3.6 WSW 44 65 24 35 1015.8 - 0.0
01/07:23pm 12.0 3.0 -0.2 43 5.0 WSW 37 65 20 35 1015.6 - 0.0
01/07:00pm 12.2 5.5 -1.3 39 5.4 W 24 33 13 18 1014.5 1014.5 0.0
01/06:30pm 12.5 5.8 -1.4 38 5.6 W 24 33 13 18 1013.6 - 0.0
01/06:00pm 12.8 3.9 -1.9 36 5.8 W 35 46 19 25 1012.8 1012.8 0.0
01/05:56pm 12.9 5.3 -2.2 35 5.9 W 28 46 15 25 1012.6 - 0.0
01/05:30pm 12.6 5.4 -2.4 35 5.9 W 26 35 14 19 1012.1 - 0.0
01/05:16pm 12.7 5.0 -3.1 33 6.1 W 28 46 15 25 1011.7 - 0.0
01/05:00pm 13.6 5.1 -3.6 30 6.6 W 32 46 17 25 1011.2 1011.2 0.0
01/04:30pm 14.3 5.8 -3.5 29 6.9 W 32 52 17 28 1011.0 - 0.0
01/04:00pm 14.9 6.4 -3.0 29 7.1 W 32 50 17 27 1010.5 1010.5 0.0
01/03:54pm 15.1 6.1 -2.8 29 7.1 W 35 54 19 29 1010.4 - 0.0
01/03:30pm 15.4 7.3 -3.0 28 7.3 WNW 30 41 16 22 1009.9 - 0.0
01/03:00pm 15.5 5.3 -3.4 27 7.5 WNW 41 54 22 29 1009.8 1009.8 0.0
01/02:49pm 15.6 5.7 -4.3 25 7.7 W 39 57 21 31 1009.6 - 0.0
01/02:30pm 15.9 6.5 -3.1 27 7.6 WNW 37 50 20 27 1009.4 - 0.0
01/02:22pm 15.7 5.9 -3.2 27 7.5 WNW 39 57 21 31 1009.4 - 0.0
01/02:00pm 16.0 7.2 -4.0 25 7.8 W 33 54 18 29 1009.2 1009.2 0.0
01/01:43pm 16.1 8.3 -3.4 26 7.7 W 28 48 15 26 1008.9 - 0.0
01/01:30pm 16.9 7.3 -1.7 28 7.7 WSW 39 44 21 24 1008.8 - 0.0
01/01:00pm 16.8 8.3 -1.8 28 7.7 WNW 33 44 18 24 1008.5 1008.5 0.0
01/12:48pm 16.7 7.9 -3.9 24 8.1 W 33 52 18 28 1008.5 - 0.0
01/12:30pm 16.9 7.8 -0.8 30 7.5 WNW 37 48 20 26 1008.5 - 0.0
01/12:04pm 17.2 10.0 0.4 32 7.3 W 28 59 15 32 1008.4 - 0.0
01/12:00pm 16.5 9.3 0.6 34 6.9 W 28 39 15 21 1008.5 1008.5 0.0
01/11:30am 16.6 8.1 1.1 35 6.8 W 35 56 19 30 1008.9 - 0.0
01/11:13am 16.0 7.5 0.6 35 6.6 W 35 54 19 29 1008.8 - 0.0
01/11:00am 17.4 9.6 3.0 38 6.6 WNW 33 48 18 26 1008.4 1008.4 0.0
01/10:42am 16.5 7.5 2.5 39 6.3 W 39 57 21 31 1008.3 - 0.0
01/10:30am 16.7 7.3 2.3 38 6.5 W 41 54 22 29 1008.2 - 0.0
01/10:02am 16.3 9.4 2.3 39 6.3 W 28 46 15 25 1008.4 - 0.0
01/10:00am 16.8 10.8 3.5 41 6.2 W 24 46 13 25 1008.4 1008.4 0.0
01/09:43am 16.3 9.6 3.7 43 5.8 W 28 46 15 25 1008.3 - 0.0
01/09:30am 16.8 11.3 4.2 43 5.9 W 22 39 12 21 1008.1 - 0.0
01/09:00am 15.8 10.9 4.2 46 5.4 W 19 24 10 13 1008.1 1008.1 0.0
01/08:30am 15.8 10.7 4.2 46 5.4 W 20 28 11 15 1008.0 - 0.0
01/08:00am 15.3 9.0 3.8 46 5.3 W 26 35 14 19 1007.7 1007.7 0.0
01/07:30am 15.4 8.7 3.5 45 5.4 WSW 28 41 15 22 1007.4 - 0.0
01/07:00am 14.8 8.3 0.3 37 6.2 WSW 24 30 13 16 1006.7 1006.7 0.0
01/06:30am 15.7 10.4 -0.9 32 6.9 WNW 17 22 9 12 1005.6 - 0.0
01/06:00am 15.5 10.1 -1.1 32 6.9 WNW 17 28 9 15 1005.0 1005.0 0.0
01/05:30am 16.2 11.5 -1.8 29 7.4 NNW 13 20 7 11 1004.5 - 0.0
01/05:00am 15.9 11.9 -2.1 29 7.4 N 9 19 5 10 1004.5 1004.5 0.0
01/04:30am 16.7 10.9 -1.4 29 7.5 N 19 24 10 13 1003.9 - 0.0
01/04:00am 16.7 11.3 -1.4 29 7.6 N 17 22 9 12 1004.0 1004.0 0.0
01/03:30am 15.4 11.2 -1.2 32 6.9 N 11 17 6 9 1004.2 - 0.0
01/03:00am 15.7 11.8 -1.4 31 7.1 NW 9 13 5 7 1004.6 1004.6 0.0
01/02:30am 16.7 12.1 -1.4 29 7.5 N 13 19 7 10 1004.9 - 0.0
01/02:00am 16.6 12.0 -1.0 30 7.4 N 13 17 7 9 1005.1 1005.1 0.0
01/01:30am 16.7 11.7 -1.4 29 7.5 N 15 20 8 11 1005.6 - 0.0
01/01:00am 16.4 11.1 -0.8 31 7.3 N 17 20 9 11 1005.7 1005.7 0.0
01/12:30am 16.8 11.1 -0.4 31 7.3 N 19 24 10 13 1005.8 - 0.0
01/12:00am 16.5 11.2 -0.7 31 7.3 N 17 22 9 12 1006.1 1006.1 0.0
 
Date/Time
EST
Tmp

°C
App
Tmp
°C
Dew
Point
°C
Rel
Hum
%
Delta-T

°C
Wind Press
QNH
hPa
Press
MSL
hPa
Rain
since
9 am
mm
Dir
 
Spd
km/h
Gust
km/h
Spd
kts
Gust
kts
31/11:30pm 17.0 12.1 -0.7 30 7.5 N 15 24 8 13 1006.4 - 0.0
31/11:00pm 17.5 11.9 -0.2 30 7.6 N 19 28 10 15 1006.4 1006.4 0.0
31/10:30pm 17.6 11.0 -0.2 30 7.7 N 24 30 13 16 1006.5 - 0.0
31/10:00pm 18.3 11.4 0.0 29 8.0 N 26 32 14 17 1006.6 1006.6 0.0
31/09:30pm 18.1 12.4 0.3 30 7.8 N 20 28 11 15 1006.9 - 0.0
31/09:00pm 17.8 12.3 0.5 31 7.6 N 19 24 10 13 1007.1 1007.1 0.0
31/08:30pm 18.6 12.5 0.2 29 8.1 NNW 22 35 12 19 1007.3 - 0.0
31/08:00pm 19.6 12.3 0.1 27 8.6 NNW 28 37 15 20 1007.1 1007.1 0.0
31/07:30pm 19.3 12.4 -0.1 27 8.5 NNW 26 37 14 20 1007.2 - 0.0
31/07:00pm 19.2 13.5 0.3 28 8.4 NNW 20 28 11 15 1007.3 1007.3 0.0
31/06:30pm 19.4 13.9 0.4 28 8.4 NNW 19 26 10 14 1007.2 - 0.0
31/06:00pm 19.7 14.1 -0.3 26 8.8 NNW 19 24 10 13 1007.2 1007.2 0.0
31/05:30pm 21.1 14.5 -0.2 24 9.5 NNW 24 32 13 17 1007.1 - 0.0
31/05:00pm 21.8 16.0 -0.2 23 9.9 NW 20 28 11 15 1007.1 1007.1 0.0
31/04:30pm 23.0 15.0 0.2 22 10.4 NNW 32 44 17 24 1006.9 - 0.0
31/04:01pm 23.8 15.6 0.2 21 10.8 NNW 33 52 18 28 1006.9 - 0.0
31/04:00pm 23.8 15.8 0.2 21 10.8 NNW 32 46 17 25 1007.0 1007.0 0.0
31/03:34pm 24.1 17.1 1.7 23 10.6 NNW 28 48 15 26 1007.3 - 0.0
31/03:30pm 24.2 18.0 2.4 24 10.4 NNW 24 48 13 26 1007.4 - 0.0
31/03:09pm 24.6 16.0 0.2 20 11.2 NW 35 54 19 29 1007.6 - 0.0
31/03:00pm 24.5 15.0 -0.6 19 11.4 NW 39 50 21 27 1007.6 1007.6 0.0
31/02:48pm 24.6 16.4 0.2 20 11.2 NW 33 54 18 29 1007.7 - 0.0
31/02:30pm 24.8 15.6 1.0 21 11.1 NW 39 50 21 27 1008.0 - 0.0
31/02:00pm 25.1 17.4 2.5 23 10.9 NNW 32 44 17 24 1008.4 1008.4 0.0
31/01:30pm 24.8 17.3 3.5 25 10.4 NNW 32 41 17 22 1008.9 - 0.0
31/01:00pm 24.3 17.7 4.1 27 10.0 NNW 28 41 15 22 1009.5 1009.5 0.0
31/12:30pm 24.2 17.5 3.5 26 10.1 NNW 28 41 15 22 1010.2 - 0.0
31/12:00pm 23.9 16.3 2.7 25 10.2 NW 32 44 17 24 1011.0 1011.0 0.0
31/11:30am 24.2 17.9 3.5 26 10.1 NW 26 35 14 19 1011.7 - 0.0
31/11:00am 23.1 16.6 2.6 26 9.8 NW 26 39 14 21 1012.3 1012.3 0.0
31/10:30am 23.1 17.6 4.1 29 9.3 NW 22 32 12 17 1013.1 - 0.0
31/10:00am 20.6 15.7 5.0 36 7.6 NNE 20 32 11 17 1013.7 1013.7 0.0
31/09:30am 19.2 14.3 4.9 39 6.9 NNE 20 26 11 14 1013.9 - 0.0
31/09:00am 17.9 13.1 5.5 44 6.0 NNE 20 28 11 15 1014.4 1014.4 0.0
31/08:30am 16.4 11.6 5.7 49 5.2 N 20 26 11 14 1014.5 - 0.0
31/08:00am 14.1 11.1 6.2 59 3.8 NE 11 17 6 9 1014.6 1014.6 0.0
31/07:30am 12.2 9.9 5.8 65 3.0 N 7 13 4 7 1014.9 - 0.0
31/07:00am 12.2 8.1 6.0 66 2.9 NNE 17 26 9 14 1014.6 1014.6 0.0
31/06:30am 10.5 6.9 5.1 69 2.5 NNE 13 20 7 11 1014.8 - 0.0
31/06:00am 12.7 9.0 6.1 64 3.1 N 15 20 8 11 1014.5 1014.5 0.0
31/05:30am 12.4 10.0 6.9 69 2.6 N 9 15 5 8 1014.4 - 0.0
31/05:00am 12.1 9.1 6.2 67 2.8 NNW 11 17 6 9 1014.4 1014.4 0.0
31/04:30am 12.6 8.2 6.6 67 2.9 NNW 19 24 10 13 1014.4 - 0.0
31/04:00am 13.0 8.5 6.8 66 3.0 NNW 20 26 11 14 1014.6 1014.6 0.0
31/03:30am 12.9 9.4 7.1 68 2.8 NNW 15 22 8 12 1014.8 - 0.0
31/03:00am 12.0 8.8 6.7 70 2.5 NNW 13 19 7 10 1015.0 1015.0 0.0
31/02:30am 12.6 9.9 7.5 71 2.5 N 11 17 6 9 1015.2 - 0.0
31/02:00am 12.0 9.9 6.7 70 2.5 N 7 11 4 6 1015.6 1015.6 0.0
31/01:30am 13.8 10.4 7.8 67 3.0 N 15 22 8 12 1015.8 - 0.0
31/01:00am 11.9 8.9 7.8 76 2.0 NNE 13 17 7 9 1016.1 1016.1 0.0
31/12:30am 11.2 8.4 7.1 76 2.0 NNE 11 13 6 7 1016.4 - 0.0
31/12:00am 11.8 9.3 6.7 71 2.4 NNE 9 11 5 6 1016.9 1016.9 0.0
 
Date/Time
EST
Tmp

°C
App
Tmp
°C
Dew
Point
°C
Rel
Hum
%
Delta-T

°C
Wind Press
QNH
hPa
Press
MSL
hPa
Rain
since
9 am
mm
Dir
 
Spd
km/h
Gust
km/h
Spd
kts
Gust
kts
30/11:30pm 12.8 10.5 7.5 70 2.6 N 9 11 5 6 1017.2 - 0.0
30/11:00pm 12.6 10.2 7.1 69 2.6 N 9 11 5 6 1017.4 1017.4 0.0
30/10:30pm 13.3 10.3 7.5 68 2.8 NW 13 17 7 9 1017.6 - 0.0
30/10:00pm 12.6 9.4 6.9 68 2.7 NNW 13 17 7 9 1017.7 1017.7 0.0
30/09:30pm 13.5 11.2 7.3 66 3.0 NNW 9 11 5 6 1017.6 - 0.0
30/09:00pm 13.9 11.2 7.4 65 3.2 NNW 11 13 6 7 1017.6 1017.6 0.0
30/08:30pm 12.2 10.2 6.9 70 2.5 NNW 7 9 4 5 1017.6 - 0.0
30/08:00pm 13.5 11.7 7.3 66 3.0 NW 6 7 3 4 1017.7 1017.7 0.0
30/07:30pm 12.8 10.8 7.0 68 2.8 WSW 7 9 4 5 1017.8 - 0.0
30/07:00pm 13.8 11.8 7.3 65 3.2 WNW 7 7 4 4 1017.5 1017.5 0.0
30/06:30pm 15.3 13.5 7.1 58 4.0 WNW 6 7 3 4 1017.0 - 0.0
30/06:00pm 16.8 14.1 7.2 53 4.8 SW 11 13 6 7 1016.6 1016.6 0.0
30/05:30pm 17.6 14.8 7.1 50 5.3 SW 11 17 6 9 1016.1 - 0.0
30/05:00pm 19.4 16.2 6.8 44 6.3 WSW 13 17 7 9 1015.7 1015.7 0.0
30/04:30pm 20.6 16.3 6.9 41 7.0 WSW 19 26 10 14 1015.6 - 0.0
30/04:00pm 21.5 15.4 6.6 38 7.6 W 28 35 15 19 1015.3 1015.3 0.0
30/03:30pm 21.8 15.8 6.9 38 7.6 WSW 28 39 15 21 1015.2 - 0.0
30/03:00pm 22.2 15.7 6.4 36 8.0 W 30 43 16 23 1015.1 1015.1 0.0
30/02:30pm 22.3 15.2 6.5 36 8.1 W 33 44 18 24 1015.3 - 0.0
30/02:00pm 22.3 15.3 6.1 35 8.2 WNW 32 52 17 28 1015.3 1015.3 0.0
30/01:54pm 22.5 16.2 5.9 34 8.4 WNW 28 52 15 28 1015.3 - 0.0
30/01:30pm 22.3 16.2 6.5 36 8.1 WNW 28 43 15 23 1015.3 - 0.0
30/01:17pm 22.1 14.6 6.3 36 8.0 W 35 54 19 29 1015.5 - 0.0
30/01:00pm 22.0 13.7 6.3 36 8.0 W 39 56 21 30 1015.7 1015.7 0.0
30/12:42pm 22.0 14.5 6.3 36 8.0 WNW 35 56 19 30 1015.9 - 0.0
30/12:30pm 22.1 15.9 6.3 36 8.0 W 28 41 15 22 1016.0 - 0.0
30/12:00pm 22.2 16.1 6.4 36 8.0 WNW 28 43 15 23 1016.4 1016.4 0.0
30/11:30am 21.6 15.5 6.7 38 7.6 WNW 28 41 15 22 1016.8 - 0.0
30/11:00am 21.9 16.0 7.3 39 7.5 WNW 28 37 15 20 1017.4 1017.4 0.0
30/10:30am 20.6 15.0 7.2 42 6.8 NW 26 39 14 21 1017.9 - 0.0
30/10:00am 20.1 17.2 6.4 41 6.9 N 11 19 6 10 1018.7 1018.7 0.0
30/09:30am 19.4 16.1 6.2 42 6.6 WNW 13 20 7 11 1018.5 - 0.0
30/09:00am 18.5 14.4 6.4 45 6.0 NW 17 22 9 12 1018.2 1018.2 0.0
30/08:30am 16.8 12.9 6.9 52 4.9 NW 17 22 9 12 1018.5 - 0.0
30/08:00am 12.3 8.1 5.9 65 3.0 NW 17 20 9 11 1018.5 1018.5 0.0
30/07:30am 11.1 6.0 4.3 63 3.0 NNW 20 24 11 13 1018.6 - 0.0
30/07:00am 10.5 7.9 4.4 66 2.7 N 7 9 4 5 1018.8 1018.8 0.0
30/06:30am 9.7 5.8 3.2 64 2.8 N 13 17 7 9 1018.4 - 0.0
30/06:00am 11.5 8.5 4.3 61 3.2 N 9 13 5 7 1018.1 1018.1 0.0
30/05:30am 10.4 7.9 3.9 64 2.9 ENE 6 15 3 8 1017.6 - 0.0
30/05:00am 11.3 6.8 4.1 61 3.2 N 17 19 9 10 1017.2 1017.2 0.0
30/04:30am 11.3 7.2 4.1 61 3.2 N 15 20 8 11 1016.8 - 0.0
30/04:00am 11.7 8.8 4.4 61 3.3 N 9 15 5 8 1016.7 1016.7 0.0
30/03:30am 10.7 7.6 3.5 61 3.2 NNE 9 13 5 7 1016.7 - 0.0
30/03:00am 10.4 6.9 3.7 63 2.9 N 11 13 6 7 1016.4 1016.4 0.0
30/02:30am 10.5 7.8 5.5 71 2.3 N 9 11 5 6 1016.3 - 0.0
30/02:00am 7.1 5.2 3.0 75 1.7 NW 2 7 1 4 1016.3 1016.3 0.0
30/01:30am 9.7 7.6 4.1 68 2.5 N 4 9 2 5 1016.2 - 0.0
30/01:00am 10.2 7.7 3.7 64 2.8 S 6 9 3 5 1016.3 1016.3 0.0
30/12:30am 11.5 9.4 3.8 59 3.4 ESE 4 9 2 5 1016.2 - 0.0
30/12:00am 14.5 10.8 4.5 51 4.6 NNW 13 17 7 9 1016.1 1016.1 0.0

Latest Capital City Observations: Canberra | Sydney | Melbourne | Brisbane | Adelaide | Perth | Hobart | Darwin

Other Formats:

Comma delimited format used in spreadsheet applications
http://www.bom.gov.au/fwo/IDN60901/IDN60901.95753.axf

JavaScript Object Notation format (JSON) in row-major order
http://www.bom.gov.au/fwo/IDN60901/IDN60901.95753.json